Time;durP1;ratioP1;P1;durP2;ratioP2;P2;SDS_P1;SDS_P2;PMS_P1;PMS_P2;Temp;Humidity;BMP_temperature;BMP_pressure;BME280_temperature;BME280_humidity;BME280_pressure;Samples;Min_cycle;Max_cycle;Signal;HPM_P1;HPM_P2
2023/10/24 00:01:10;;;;;;;5.65;2.90;;;;;;;;;;4974207;28;20051;-70
2023/10/24 00:03:36;;;;;;;3.63;2.33;;;;;;;;;;4974483;28;20381;-71
2023/10/24 00:06:03;;;;;;;3.92;2.83;;;;;;;;;;4974451;28;20027;-72
2023/10/24 00:08:29;;;;;;;4.88;2.58;;;;;;;;;;4974638;28;20031;-70
2023/10/24 00:11:05;;;;;;;2.90;2.60;;;;;;;;;;4974255;28;20030;-67
2023/10/24 00:13:31;;;;;;;4.40;2.55;;;;;;;;;;4974229;28;20078;-70
2023/10/24 00:15:58;;;;;;;3.42;2.70;;;;;;;;;;4974244;28;20030;-71
2023/10/24 00:18:25;;;;;;;4.35;2.80;;;;;;;;;;4974412;28;20031;-67
2023/10/24 00:20:50;;;;;;;3.85;2.50;;;;;;;;;;4973894;28;20046;-71
2023/10/24 00:23:16;;;;;;;4.80;2.80;;;;;;;;;;4973310;28;20510;-69
2023/10/24 00:25:41;;;;;;;6.07;3.13;;;;;;;;;;4973102;28;20046;-71
2023/10/24 00:28:07;;;;;;;3.08;2.40;;;;;;;;;;4974072;28;20033;-70
2023/10/24 00:30:34;;;;;;;4.47;2.63;;;;;;;;;;4972607;28;20031;-71
2023/10/24 00:32:59;;;;;;;5.35;2.67;;;;;;;;;;4973964;28;20458;-71
2023/10/24 00:35:25;;;;;;;4.03;2.55;;;;;;;;;;4974259;28;20050;-71
2023/10/24 00:37:51;;;;;;;3.65;2.85;;;;;;;;;;4973536;28;20488;-72
2023/10/24 00:40:18;;;;;;;3.10;2.47;;;;;;;;;;4973706;28;20389;-70
2023/10/24 00:42:45;;;;;;;4.70;2.60;;;;;;;;;;4973818;28;20023;-70
2023/10/24 00:45:10;;;;;;;3.45;2.53;;;;;;;;;;4974076;28;20022;-68
2023/10/24 00:47:38;;;;;;;4.60;2.60;;;;;;;;;;4973768;28;20392;-72
2023/10/24 00:50:04;;;;;;;4.20;2.80;;;;;;;;;;4973121;28;20122;-71
2023/10/24 00:52:30;;;;;;;3.65;2.60;;;;;;;;;;4973786;28;20046;-71
2023/10/24 00:54:56;;;;;;;5.03;2.60;;;;;;;;;;4973717;28;20022;-72
2023/10/24 00:57:23;;;;;;;4.38;2.50;;;;;;;;;;4973960;28;20155;-71
2023/10/24 00:59:49;;;;;;;4.13;2.47;;;;;;;;;;4973496;28;20026;-71
2023/10/24 01:02:15;;;;;;;3.35;2.80;;;;;;;;;;4973930;28;20038;-71
2023/10/24 01:04:41;;;;;;;3.33;2.40;;;;;;;;;;4973971;28;20023;-70
2023/10/24 01:07:07;;;;;;;5.10;2.63;;;;;;;;;;4973903;28;20080;-70
2023/10/24 01:09:32;;;;;;;2.67;2.42;;;;;;;;;;4973648;28;20114;-70
2023/10/24 01:11:58;;;;;;;7.03;3.10;;;;;;;;;;4973436;28;20041;-70
2023/10/24 01:14:23;;;;;;;3.80;2.28;;;;;;;;;;4973825;28;20321;-70
2023/10/24 01:16:49;;;;;;;4.45;2.40;;;;;;;;;;4973757;28;20027;-71
2023/10/24 01:19:15;;;;;;;3.50;2.40;;;;;;;;;;4973473;28;20472;-72
2023/10/24 01:21:43;;;;;;;3.33;2.30;;;;;;;;;;4973416;28;20175;-68
2023/10/24 01:24:09;;;;;;;3.28;2.50;;;;;;;;;;4973735;28;20064;-71
2023/10/24 01:26:34;;;;;;;3.40;2.45;;;;;;;;;;4973717;28;20039;-70
2023/10/24 01:29:00;;;;;;;3.90;2.30;;;;;;;;;;4973399;28;20564;-70
2023/10/24 01:31:25;;;;;;;2.75;2.25;;;;;;;;;;4973365;28;20041;-69
2023/10/24 01:33:51;;;;;;;3.33;2.33;;;;;;;;;;4973342;28;20027;-71
2023/10/24 01:36:17;;;;;;;3.45;2.53;;;;;;;;;;4973621;28;20027;-70
2023/10/24 01:38:43;;;;;;;3.53;2.30;;;;;;;;;;4973258;28;20031;-71
2023/10/24 01:41:08;;;;;;;3.47;2.35;;;;;;;;;;4973330;28;20084;-73
2023/10/24 01:43:34;;;;;;;4.43;2.60;;;;;;;;;;4973239;28;20027;-72
2023/10/24 01:45:59;;;;;;;4.05;2.50;;;;;;;;;;4973539;28;20031;-70
2023/10/24 01:48:25;;;;;;;3.20;2.50;;;;;;;;;;4973208;28;20031;-70
2023/10/24 01:50:51;;;;;;;3.47;2.55;;;;;;;;;;4973177;28;20030;-73
2023/10/24 01:53:16;;;;;;;3.85;2.30;;;;;;;;;;4973443;28;20512;-69
2023/10/24 01:55:42;;;;;;;3.05;2.42;;;;;;;;;;4973425;28;20120;-72
2023/10/24 01:58:07;;;;;;;3.60;2.58;;;;;;;;;;4973464;28;20507;-72
2023/10/24 02:00:33;;;;;;;3.67;2.20;;;;;;;;;;4972926;28;20039;-72
2023/10/24 02:02:58;;;;;;;3.05;2.15;;;;;;;;;;4976681;28;20034;-73
2023/10/24 02:05:24;;;;;;;3.20;2.17;;;;;;;;;;4976942;28;20030;-73
2023/10/24 02:07:49;;;;;;;5.07;2.45;;;;;;;;;;4976857;28;20439;-72
2023/10/24 02:10:16;;;;;;;3.63;2.40;;;;;;;;;;4976589;28;20114;-69
2023/10/24 02:12:41;;;;;;;3.42;2.50;;;;;;;;;;4976740;28;20039;-69
2023/10/24 02:15:07;;;;;;;2.58;2.22;;;;;;;;;;4976711;28;20392;-69
2023/10/24 02:17:33;;;;;;;2.97;2.30;;;;;;;;;;4976420;28;20026;-68
2023/10/24 02:19:58;;;;;;;3.03;2.28;;;;;;;;;;4976643;28;20066;-72
2023/10/24 02:22:24;;;;;;;3.38;2.53;;;;;;;;;;4976301;28;20495;-69
2023/10/24 02:24:49;;;;;;;2.88;2.45;;;;;;;;;;4976338;28;20483;-71
2023/10/24 02:27:15;;;;;;;2.40;2.20;;;;;;;;;;4976546;28;20038;-72
2023/10/24 02:29:40;;;;;;;4.47;2.55;;;;;;;;;;4976206;28;20026;-69
2023/10/24 02:32:06;;;;;;;2.75;2.45;;;;;;;;;;4976351;28;20026;-72
2023/10/24 02:34:31;;;;;;;5.47;2.47;;;;;;;;;;4976123;28;20031;-69
2023/10/24 02:36:57;;;;;;;3.40;2.22;;;;;;;;;;4976355;28;20031;-67
2023/10/24 02:39:22;;;;;;;2.63;2.33;;;;;;;;;;4974782;28;20023;-72
2023/10/24 02:41:48;;;;;;;4.45;2.33;;;;;;;;;;4975009;28;20035;-70
2023/10/24 02:44:14;;;;;;;2.42;2.20;;;;;;;;;;4976220;28;20030;-71
2023/10/24 02:46:39;;;;;;;3.22;2.40;;;;;;;;;;4976199;28;20527;-70
2023/10/24 02:49:05;;;;;;;3.63;2.30;;;;;;;;;;4975915;28;20158;-72
2023/10/24 02:51:31;;;;;;;2.83;2.30;;;;;;;;;;4975775;28;20116;-70
2023/10/24 02:53:56;;;;;;;3.22;2.35;;;;;;;;;;4975804;28;20383;-73
2023/10/24 02:56:22;;;;;;;2.70;2.50;;;;;;;;;;4976024;28;20041;-69
2023/10/24 02:58:48;;;;;;;3.50;2.30;;;;;;;;;;4975717;28;20090;-70
2023/10/24 03:01:13;;;;;;;2.95;2.30;;;;;;;;;;4975693;28;20095;-71
2023/10/24 03:03:39;;;;;;;2.83;2.22;;;;;;;;;;4975646;28;20070;-71
2023/10/24 03:06:15;;;;;;;3.03;2.40;;;;;;;;;;4975508;28;20019;-70
2023/10/24 03:08:40;;;;;;;2.28;1.90;;;;;;;;;;4975514;28;20487;-70
2023/10/24 03:11:06;;;;;;;3.25;2.38;;;;;;;;;;4975647;28;20063;-72
2023/10/24 03:13:31;;;;;;;3.00;2.33;;;;;;;;;;4975035;28;20023;-72
2023/10/24 03:16:04;;;;;;;2.17;1.98;;;;;;;;;;4975351;28;20369;-70
2023/10/24 03:18:31;;;;;;;3.58;2.20;;;;;;;;;;4975408;28;20027;-73
2023/10/24 03:20:57;;;;;;;2.67;2.20;;;;;;;;;;4975588;28;20436;-72
2023/10/24 03:23:23;;;;;;;2.90;2.20;;;;;;;;;;4975548;28;20041;-74
2023/10/24 03:25:48;;;;;;;2.88;2.33;;;;;;;;;;4975417;28;20031;-72
2023/10/24 03:28:14;;;;;;;2.22;1.92;;;;;;;;;;4975087;28;20034;-71
2023/10/24 03:30:40;;;;;;;2.63;1.92;;;;;;;;;;4975141;28;20027;-69
2023/10/24 03:33:06;;;;;;;2.40;2.15;;;;;;;;;;4975258;28;20030;-67
2023/10/24 03:35:34;;;;;;;3.78;2.25;;;;;;;;;;4975002;28;20197;-69
2023/10/24 03:38:01;;;;;;;2.22;2.03;;;;;;;;;;4974891;28;20066;-68
2023/10/24 03:40:27;;;;;;;2.38;2.00;;;;;;;;;;4974854;28;20175;-70
2023/10/24 03:42:55;;;;;;;2.45;2.17;;;;;;;;;;4974876;28;20160;-67
2023/10/24 03:45:21;;;;;;;3.60;2.45;;;;;;;;;;4974887;28;20038;-68
2023/10/24 03:47:52;;;;;;;3.85;2.30;;;;;;;;;;4975074;28;20027;-70
2023/10/24 03:50:18;;;;;;;3.20;2.47;;;;;;;;;;4974827;28;20031;-69
2023/10/24 03:52:44;;;;;;;3.88;2.15;;;;;;;;;;4974610;28;20364;-70
2023/10/24 03:55:11;;;;;;;3.25;2.22;;;;;;;;;;4974629;28;20035;-70
2023/10/24 03:57:40;;;;;;;2.42;2.03;;;;;;;;;;4974620;28;20464;-68
2023/10/24 04:00:08;;;;;;;2.40;2.00;;;;;;;;;;4974413;28;20055;-72
2023/10/24 04:02:35;;;;;;;4.15;2.30;;;;;;;;;;4974501;28;20563;-71
2023/10/24 04:05:00;;;;;;;2.70;2.10;;;;;;;;;;4974410;28;20480;-70
2023/10/24 04:07:26;;;;;;;3.83;2.17;;;;;;;;;;4974351;28;20073;-67
2023/10/24 04:09:52;;;;;;;2.95;2.30;;;;;;;;;;4974649;28;20085;-70
2023/10/24 04:12:17;;;;;;;3.13;2.00;;;;;;;;;;4974292;28;20030;-67
2023/10/24 04:14:43;;;;;;;3.67;1.98;;;;;;;;;;4974275;28;20110;-70
2023/10/24 04:17:08;;;;;;;2.42;2.05;;;;;;;;;;4974319;28;20019;-70
2023/10/24 04:19:34;;;;;;;2.63;2.13;;;;;;;;;;4974207;28;20420;-71
2023/10/24 04:22:00;;;;;;;3.15;2.20;;;;;;;;;;4974187;28;20488;-68
2023/10/24 04:24:25;;;;;;;2.10;1.90;;;;;;;;;;4973976;28;20018;-68
2023/10/24 04:26:51;;;;;;;2.00;1.80;;;;;;;;;;4973705;28;20053;-71
2023/10/24 04:29:16;;;;;;;2.67;2.08;;;;;;;;;;4974157;28;20037;-71
2023/10/24 04:31:42;;;;;;;2.58;2.00;;;;;;;;;;4974007;28;20369;-69
2023/10/24 04:34:07;;;;;;;2.67;2.08;;;;;;;;;;4973994;28;20061;-71
2023/10/24 04:36:33;;;;;;;2.72;2.10;;;;;;;;;;4974282;28;20033;-71
2023/10/24 04:38:59;;;;;;;4.13;2.53;;;;;;;;;;4973987;28;20033;-69
2023/10/24 04:41:25;;;;;;;4.32;2.08;;;;;;;;;;4973945;28;20062;-72
2023/10/24 04:43:51;;;;;;;2.22;1.83;;;;;;;;;;4973888;28;20026;-70
2023/10/24 04:46:16;;;;;;;3.25;2.03;;;;;;;;;;4973861;28;20038;-70
2023/10/24 04:48:42;;;;;;;2.10;1.90;;;;;;;;;;4973864;28;20019;-70
2023/10/24 04:51:11;;;;;;;2.35;2.00;;;;;;;;;;4973745;28;20027;-68
2023/10/24 04:53:36;;;;;;;4.18;1.95;;;;;;;;;;4973833;28;20559;-70
2023/10/24 04:56:03;;;;;;;1.83;1.70;;;;;;;;;;4974105;28;20110;-70
2023/10/24 04:58:29;;;;;;;2.90;2.50;;;;;;;;;;4973713;28;20060;-70
2023/10/24 05:00:54;;;;;;;2.42;2.05;;;;;;;;;;4972251;28;20078;-68
2023/10/24 05:03:20;;;;;;;3.03;1.98;;;;;;;;;;4973735;28;20456;-71
2023/10/24 05:05:45;;;;;;;2.63;1.90;;;;;;;;;;4972402;28;20066;-68
2023/10/24 05:08:12;;;;;;;2.45;1.92;;;;;;;;;;4973912;28;20027;-68
2023/10/24 05:10:37;;;;;;;3.05;2.00;;;;;;;;;;4973915;28;20049;-70
2023/10/24 05:13:03;;;;;;;2.33;2.05;;;;;;;;;;4973511;28;20483;-68
2023/10/24 05:15:29;;;;;;;2.20;2.00;;;;;;;;;;4974123;28;20085;-67
2023/10/24 05:17:54;;;;;;;2.60;1.90;;;;;;;;;;4973795;28;20392;-67
2023/10/24 05:20:20;;;;;;;2.45;2.00;;;;;;;;;;4973430;28;20031;-68
2023/10/24 05:22:46;;;;;;;2.83;1.77;;;;;;;;;;4973561;28;20050;-68
2023/10/24 05:25:12;;;;;;;2.72;1.98;;;;;;;;;;4973385;28;20027;-67
2023/10/24 05:27:38;;;;;;;2.20;2.00;;;;;;;;;;4973481;28;20114;-68
2023/10/24 05:30:04;;;;;;;2.08;1.88;;;;;;;;;;4973695;28;20031;-70
2023/10/24 05:32:30;;;;;;;2.40;1.98;;;;;;;;;;4973359;28;20042;-67
2023/10/24 05:34:55;;;;;;;2.00;1.80;;;;;;;;;;4973690;28;20034;-66
2023/10/24 05:37:21;;;;;;;3.58;1.92;;;;;;;;;;4975972;28;20022;-71
2023/10/24 05:39:46;;;;;;;2.65;1.90;;;;;;;;;;4977183;28;20026;-71
2023/10/24 05:42:12;;;;;;;2.83;2.17;;;;;;;;;;4977150;28;20058;-67
2023/10/24 05:44:38;;;;;;;2.50;1.90;;;;;;;;;;4977030;28;20038;-72
2023/10/24 05:47:03;;;;;;;2.72;1.90;;;;;;;;;;4977014;28;20035;-68
2023/10/24 05:49:29;;;;;;;2.53;2.00;;;;;;;;;;4975740;28;20038;-68
2023/10/24 05:51:55;;;;;;;2.15;1.92;;;;;;;;;;4976791;28;20041;-69
2023/10/24 05:54:20;;;;;;;2.83;2.08;;;;;;;;;;4977198;28;20054;-71
2023/10/24 05:56:46;;;;;;;2.13;1.85;;;;;;;;;;4977194;28;20386;-68
2023/10/24 05:59:11;;;;;;;1.70;1.60;;;;;;;;;;4977115;28;20564;-68
2023/10/24 06:01:37;;;;;;;2.05;1.83;;;;;;;;;;4976690;28;20428;-68
2023/10/24 06:04:02;;;;;;;2.55;2.00;;;;;;;;;;4976977;28;20487;-71
2023/10/24 06:06:28;;;;;;;2.13;1.63;;;;;;;;;;4976925;28;20435;-68
2023/10/24 06:08:53;;;;;;;3.10;1.92;;;;;;;;;;4976604;28;20029;-70
2023/10/24 06:11:19;;;;;;;2.60;1.90;;;;;;;;;;4976777;28;20037;-67
2023/10/24 06:13:44;;;;;;;3.13;2.20;;;;;;;;;;4976547;28;20031;-71
2023/10/24 06:16:12;;;;;;;2.72;1.90;;;;;;;;;;4976724;28;20033;-68
2023/10/24 06:18:38;;;;;;;4.82;1.80;;;;;;;;;;4976479;28;20041;-70
2023/10/24 06:21:08;;;;;;;2.40;1.95;;;;;;;;;;4976412;28;20311;-70
2023/10/24 06:23:35;;;;;;;2.38;1.90;;;;;;;;;;4976326;28;20027;-68
2023/10/24 06:26:01;;;;;;;4.35;1.95;;;;;;;;;;4976349;28;20026;-69
2023/10/24 06:28:26;;;;;;;3.80;2.00;;;;;;;;;;4976396;28;20026;-69
2023/10/24 06:31:04;;;;;;;2.38;1.55;;;;;;;;;;4976483;28;20423;-68
2023/10/24 06:33:30;;;;;;;2.70;1.75;;;;;;;;;;4976482;28;20030;-67
2023/10/24 06:35:57;;;;;;;2.10;1.90;;;;;;;;;;4976351;28;20030;-70
2023/10/24 06:38:23;;;;;;;1.95;1.80;;;;;;;;;;4976095;28;20518;-69
2023/10/24 06:40:49;;;;;;;2.13;1.88;;;;;;;;;;4976303;28;20030;-68
2023/10/24 06:43:15;;;;;;;2.17;1.63;;;;;;;;;;4976307;28;20045;-68
2023/10/24 06:45:43;;;;;;;1.95;1.75;;;;;;;;;;4975972;28;20027;-73
2023/10/24 06:48:09;;;;;;;2.33;2.10;;;;;;;;;;4975210;28;20456;-69
2023/10/24 06:50:34;;;;;;;2.38;1.70;;;;;;;;;;4975899;28;20034;-72
2023/10/24 06:53:00;;;;;;;2.67;2.00;;;;;;;;;;4975736;28;20031;-67
2023/10/24 06:55:26;;;;;;;2.42;2.13;;;;;;;;;;4974612;28;20102;-69
2023/10/24 06:57:51;;;;;;;1.70;1.60;;;;;;;;;;4975733;28;20029;-68
2023/10/24 07:00:18;;;;;;;1.67;1.58;;;;;;;;;;4975604;28;20046;-69
2023/10/24 07:02:44;;;;;;;2.17;1.80;;;;;;;;;;4975647;28;20031;-67
2023/10/24 07:05:09;;;;;;;2.22;2.00;;;;;;;;;;4975637;28;20041;-68
2023/10/24 07:07:38;;;;;;;3.90;1.75;;;;;;;;;;4975599;28;20050;-68
2023/10/24 07:10:07;;;;;;;2.35;1.60;;;;;;;;;;4975555;28;20492;-67
2023/10/24 07:12:33;;;;;;;2.38;1.90;;;;;;;;;;4975396;28;20042;-67
2023/10/24 07:14:59;;;;;;;3.47;1.70;;;;;;;;;;4975419;28;20086;-68
2023/10/24 07:17:25;;;;;;;1.75;1.65;;;;;;;;;;4975398;28;20054;-67
2023/10/24 07:19:51;;;;;;;2.05;1.85;;;;;;;;;;4975322;28;20066;-67
2023/10/24 07:22:17;;;;;;;2.63;1.60;;;;;;;;;;4975267;28;20027;-68
2023/10/24 07:24:42;;;;;;;4.22;1.90;;;;;;;;;;4975170;28;20027;-69
2023/10/24 07:27:10;;;;;;;2.38;1.77;;;;;;;;;;4975492;28;20023;-69
2023/10/24 07:29:35;;;;;;;2.42;1.80;;;;;;;;;;4975402;28;20101;-68
2023/10/24 07:32:01;;;;;;;1.60;1.50;;;;;;;;;;4975268;28;20460;-68
2023/10/24 07:34:26;;;;;;;1.52;1.40;;;;;;;;;;4975033;28;20046;-68
2023/10/24 07:36:52;;;;;;;1.85;1.63;;;;;;;;;;4975027;28;20023;-68
2023/10/24 07:39:18;;;;;;;1.80;1.65;;;;;;;;;;4975242;28;20357;-68
2023/10/24 07:41:43;;;;;;;1.70;1.60;;;;;;;;;;4974950;28;20512;-68
2023/10/24 07:44:09;;;;;;;1.77;1.65;;;;;;;;;;4974856;28;20034;-68
2023/10/24 07:46:34;;;;;;;1.80;1.60;;;;;;;;;;4975077;28;20027;-68
2023/10/24 07:49:00;;;;;;;2.50;1.73;;;;;;;;;;4975016;28;20030;-67
2023/10/24 07:51:31;;;;;;;2.08;1.80;;;;;;;;;;4973426;28;20484;-68
2023/10/24 07:53:57;;;;;;;2.75;1.75;;;;;;;;;;4974682;28;20403;-68
2023/10/24 07:56:23;;;;;;;2.35;1.90;;;;;;;;;;4974851;28;20038;-68
2023/10/24 07:58:49;;;;;;;1.77;1.50;;;;;;;;;;4974430;28;20472;-68
2023/10/24 08:01:14;;;;;;;2.05;1.60;;;;;;;;;;4974301;28;20077;-68
2023/10/24 08:03:40;;;;;;;2.42;1.80;;;;;;;;;;4974516;28;20102;-68
2023/10/24 08:06:05;;;;;;;2.25;1.60;;;;;;;;;;4974490;28;20033;-67
2023/10/24 08:08:31;;;;;;;1.65;1.55;;;;;;;;;;4974387;28;20034;-68
2023/10/24 08:10:56;;;;;;;1.92;1.52;;;;;;;;;;4974416;28;20031;-69
2023/10/24 08:13:22;;;;;;;1.95;1.60;;;;;;;;;;4974411;28;20560;-68
2023/10/24 08:15:51;;;;;;;2.28;1.52;;;;;;;;;;4974586;28;20109;-68
2023/10/24 08:18:20;;;;;;;1.53;1.43;;;;;;;;;;4974612;28;20034;-68
2023/10/24 08:20:46;;;;;;;1.80;1.42;;;;;;;;;;4974211;28;20031;-68
2023/10/24 08:23:12;;;;;;;2.40;1.70;;;;;;;;;;4974208;28;20380;-68
2023/10/24 08:25:38;;;;;;;1.70;1.60;;;;;;;;;;4974194;28;20504;-68
2023/10/24 08:28:04;;;;;;;1.90;1.65;;;;;;;;;;4974383;28;20042;-67
2023/10/24 08:30:31;;;;;;;2.10;1.70;;;;;;;;;;4974153;28;20027;-69
2023/10/24 08:32:58;;;;;;;1.48;1.17;;;;;;;;;;4973975;28;20039;-68
2023/10/24 08:35:23;;;;;;;1.67;1.58;;;;;;;;;;4973997;28;20483;-69
2023/10/24 08:37:49;;;;;;;2.28;1.42;;;;;;;;;;4974223;28;20038;-69
2023/10/24 08:40:14;;;;;;;1.50;1.40;;;;;;;;;;4973878;28;20031;-68
2023/10/24 08:42:41;;;;;;;3.15;1.70;;;;;;;;;;4973871;28;20070;-69
2023/10/24 08:45:08;;;;;;;1.70;1.52;;;;;;;;;;4973856;28;20155;-69
2023/10/24 08:47:35;;;;;;;1.70;1.60;;;;;;;;;;4973837;28;20035;-69
2023/10/24 08:50:01;;;;;;;2.05;1.60;;;;;;;;;;4973812;28;20030;-68
2023/10/24 08:52:30;;;;;;;2.47;1.60;;;;;;;;;;4973698;28;20031;-68
2023/10/24 08:55:01;;;;;;;1.60;1.50;;;;;;;;;;4974033;28;20031;-68
2023/10/24 08:57:30;;;;;;;1.90;1.70;;;;;;;;;;4973782;28;20105;-69
2023/10/24 08:59:57;;;;;;;1.95;1.52;;;;;;;;;;4973545;28;20022;-68
2023/10/24 09:02:22;;;;;;;1.55;1.42;;;;;;;;;;4973710;28;20027;-68
2023/10/24 09:04:50;;;;;;;1.85;1.67;;;;;;;;;;4973643;28;20054;-68
2023/10/24 09:07:15;;;;;;;1.88;1.45;;;;;;;;;;4973623;28;20034;-67
2023/10/24 09:09:41;;;;;;;2.13;1.70;;;;;;;;;;4973626;28;20035;-68
2023/10/24 09:12:08;;;;;;;1.92;1.55;;;;;;;;;;4975824;28;20035;-68
2023/10/24 09:14:33;;;;;;;1.60;1.50;;;;;;;;;;4977867;28;20031;-68
2023/10/24 09:17:01;;;;;;;3.47;1.80;;;;;;;;;;4977575;28;20531;-68
2023/10/24 09:19:27;;;;;;;1.92;1.63;;;;;;;;;;4977799;28;20050;-68
2023/10/24 09:21:55;;;;;;;2.30;1.70;;;;;;;;;;4977484;28;20035;-69
2023/10/24 09:24:21;;;;;;;1.92;1.50;;;;;;;;;;4977980;28;20506;-69
2023/10/24 09:26:54;;;;;;;1.73;1.63;;;;;;;;;;4981659;28;20059;-68
2023/10/24 09:29:20;;;;;;;1.70;1.60;;;;;;;;;;4983539;28;20371;-68
2023/10/24 09:31:49;;;;;;;1.98;1.42;;;;;;;;;;4985539;28;20106;-71
2023/10/24 09:34:18;;;;;;;1.83;1.58;;;;;;;;;;4983484;28;20031;-70
2023/10/24 09:36:45;;;;;;;1.97;1.60;;;;;;;;;;4984765;28;20093;-71
2023/10/24 09:39:15;;;;;;;1.75;1.55;;;;;;;;;;4985481;28;20058;-70
2023/10/24 09:41:46;;;;;;;2.78;1.80;;;;;;;;;;4985336;28;20034;-70
2023/10/24 09:44:12;;;;;;;4.03;1.80;;;;;;;;;;4984865;28;20066;-70
2023/10/24 09:46:38;;;;;;;1.88;1.60;;;;;;;;;;4983069;28;20069;-70
2023/10/24 09:49:05;;;;;;;2.65;1.60;;;;;;;;;;4976896;28;20031;-71
2023/10/24 09:51:37;;;;;;;2.67;1.60;;;;;;;;;;4975519;28;20054;-70
2023/10/24 09:54:07;;;;;;;2.15;1.80;;;;;;;;;;4977028;28;20085;-69
2023/10/24 09:56:33;;;;;;;1.65;1.55;;;;;;;;;;4976867;28;20503;-70
2023/10/24 09:58:59;;;;;;;2.20;1.52;;;;;;;;;;4976778;28;20031;-68
2023/10/24 10:01:27;;;;;;;1.70;1.58;;;;;;;;;;4976478;28;20095;-65
2023/10/24 10:03:56;;;;;;;4.75;3.25;;;;;;;;;;4976739;28;20034;-66
2023/10/24 10:06:28;;;;;;;2.92;2.45;;;;;;;;;;4976932;28;20114;-66
2023/10/24 10:08:58;;;;;;;2.15;2.00;;;;;;;;;;4975445;28;20122;-66
2023/10/24 10:11:27;;;;;;;3.60;1.70;;;;;;;;;;4975572;28;20023;-66
2023/10/24 10:14:19;;;;;;;3.58;2.25;;;;;;;;;;4976494;28;20034;-66
2023/10/24 10:17:08;;;;;;;5.10;2.60;;;;;;;;;;4976768;28;20055;-66
2023/10/24 10:19:51;;;;;;;2.93;2.10;;;;;;;;;;4976490;28;20421;-66
2023/10/24 10:22:40;;;;;;;3.08;2.17;;;;;;;;;;4976325;28;20078;-66
2023/10/24 10:25:18;;;;;;;4.25;2.17;;;;;;;;;;4976400;28;20030;-66
2023/10/24 10:28:25;;;;;;;4.18;2.58;;;;;;;;;;4976614;28;20042;-66
2023/10/24 10:31:30;;;;;;;5.28;2.78;;;;;;;;;;4970639;28;20038;-66
2023/10/24 10:33:56;;;;;;;3.25;2.95;;;;;;;;;;4952771;28;20404;-66
2023/10/24 10:36:24;;;;;;;3.20;2.90;;;;;;;;;;4976172;28;20023;-66
2023/10/24 10:38:50;;;;;;;3.28;2.70;;;;;;;;;;4976333;28;20023;-66
2023/10/24 10:41:22;;;;;;;6.50;2.78;;;;;;;;;;4976291;28;20050;-66
2023/10/24 10:43:53;;;;;;;4.05;2.55;;;;;;;;;;4976027;28;20113;-67
2023/10/24 10:46:26;;;;;;;4.80;2.55;;;;;;;;;;4976310;28;20395;-65
2023/10/24 10:48:56;;;;;;;3.63;2.53;;;;;;;;;;4976290;28;20391;-65
2023/10/24 10:51:26;;;;;;;;;;;;;;;;;;4973521;28;20510;-65
2023/10/24 10:54:14;;;;;;;6.15;2.72;;;;;;;;;;4973243;28;20359;-64
2023/10/24 10:56:41;;;;;;;7.88;2.45;;;;;;;;;;4975809;28;20043;-68
2023/10/24 10:59:07;;;;;;;7.82;2.55;;;;;;;;;;4975521;28;20046;-64
2023/10/24 11:01:57;;;;;;;4.25;2.50;;;;;;;;;;4975425;28;20051;-64
2023/10/24 11:04:23;;;;;;;6.00;2.53;;;;;;;;;;4975978;28;20388;-63
2023/10/24 11:06:52;;;;;;;10.73;3.17;;;;;;;;;;4975552;28;20023;-65
2023/10/24 11:09:22;;;;;;;9.27;2.60;;;;;;;;;;4978334;28;20617;-63
2023/10/24 11:12:23;;;;;;;12.07;2.38;;;;;;;;;;4975615;28;20497;-64
2023/10/24 11:15:06;;;;;;;11.88;2.47;;;;;;;;;;4976514;28;20145;-64
2023/10/24 11:17:34;;;;;;;10.38;2.60;;;;;;;;;;4975251;28;20023;-64
2023/10/24 11:20:00;;;;;;;7.43;2.80;;;;;;;;;;4975576;28;20026;-64
2023/10/24 11:22:26;;;;;;;11.25;2.38;;;;;;;;;;4975371;28;20027;-63
2023/10/24 11:24:52;;;;;;;9.73;2.47;;;;;;;;;;4975416;28;20346;-64
2023/10/24 11:27:22;;;;;;;17.98;2.42;;;;;;;;;;4975395;28;20023;-63
2023/10/24 11:29:49;;;;;;;14.07;2.42;;;;;;;;;;4975433;28;20057;-64
2023/10/24 11:32:19;;;;;;;14.40;2.45;;;;;;;;;;4973528;28;20041;-64
2023/10/24 11:34:46;;;;;;;10.93;1.98;;;;;;;;;;4974457;28;20027;-65
2023/10/24 11:37:11;;;;;;;15.73;2.53;;;;;;;;;;4975188;28;20027;-65
2023/10/24 11:39:41;;;;;;;8.55;2.67;;;;;;;;;;4973649;28;20464;-65
2023/10/24 11:42:06;;;;;;;11.00;2.30;;;;;;;;;;4974803;28;20491;-65
2023/10/24 11:44:32;;;;;;;7.97;2.30;;;;;;;;;;4974663;28;20038;-66
2023/10/24 11:46:57;;;;;;;20.50;2.78;;;;;;;;;;4974669;28;20082;-65
2023/10/24 11:49:33;;;;;;;17.50;2.70;;;;;;;;;;4974637;28;20507;-64
2023/10/24 11:51:59;;;;;;;18.10;2.67;;;;;;;;;;4974087;28;20583;-65
2023/10/24 11:54:26;;;;;;;10.57;1.98;;;;;;;;;;4974530;28;20388;-65
2023/10/24 11:56:53;;;;;;;11.52;2.30;;;;;;;;;;4989627;28;20117;-64
2023/10/24 11:59:18;;;;;;;13.65;3.03;;;;;;;;;;4994161;28;20023;-65
2023/10/24 12:01:45;;;;;;;12.63;2.28;;;;;;;;;;4992006;28;20484;-63
2023/10/24 12:04:12;;;;;;;18.45;2.20;;;;;;;;;;4990806;28;20027;-64
2023/10/24 12:06:38;;;;;;;13.55;2.70;;;;;;;;;;4972505;28;20082;-65
2023/10/24 12:09:04;;;;;;;7.88;1.85;;;;;;;;;;4974479;28;20027;-63
2023/10/24 12:11:32;;;;;;;18.05;3.58;;;;;;;;;;4974226;28;20027;-64
2023/10/24 12:13:58;;;;;;;12.20;2.90;;;;;;;;;;4975155;28;20031;-64
2023/10/24 12:16:31;;;;;;;22.13;2.80;;;;;;;;;;4974513;28;20023;-65
2023/10/24 12:18:57;;;;;;;17.52;2.67;;;;;;;;;;4974012;28;20030;-65
2023/10/24 12:21:23;;;;;;;16.05;2.55;;;;;;;;;;4974285;28;20046;-68
2023/10/24 12:23:49;;;;;;;7.35;2.22;;;;;;;;;;4974649;28;20411;-64
2023/10/24 12:26:14;;;;;;;8.00;2.20;;;;;;;;;;4980666;28;20030;-67
2023/10/24 12:28:43;;;;;;;13.93;2.72;;;;;;;;;;4978596;28;20038;-67
2023/10/24 12:31:10;;;;;;;15.82;3.42;;;;;;;;;;4974042;28;20089;-65
2023/10/24 12:33:36;;;;;;;17.98;2.40;;;;;;;;;;4973967;28;20030;-65
2023/10/24 12:36:02;;;;;;;16.15;2.72;;;;;;;;;;4971501;28;20023;-65
2023/10/24 12:38:29;;;;;;;8.20;2.03;;;;;;;;;;4981743;28;20061;-65
2023/10/24 12:40:55;;;;;;;10.50;2.28;;;;;;;;;;4981421;28;20022;-64
2023/10/24 12:43:20;;;;;;;14.65;2.25;;;;;;;;;;4986156;28;20529;-64
2023/10/24 12:45:46;;;;;;;23.67;2.65;;;;;;;;;;4992513;28;20113;-63
2023/10/24 12:48:13;;;;;;;13.90;2.10;;;;;;;;;;4993225;28;20030;-64
2023/10/24 12:50:39;;;;;;;26.15;2.75;;;;;;;;;;4993175;28;20037;-64
2023/10/24 12:53:05;;;;;;;16.90;2.35;;;;;;;;;;4975022;28;20041;-63
2023/10/24 12:55:31;;;;;;;13.90;2.42;;;;;;;;;;4973727;28;20030;-64
2023/10/24 12:57:56;;;;;;;15.00;2.67;;;;;;;;;;4973689;28;20035;-64
2023/10/24 13:00:22;;;;;;;8.75;2.17;;;;;;;;;;4973619;28;20047;-65
2023/10/24 13:02:48;;;;;;;23.30;2.58;;;;;;;;;;4973646;28;20027;-64
2023/10/24 13:05:13;;;;;;;22.58;2.88;;;;;;;;;;4973410;28;20389;-64
2023/10/24 13:07:39;;;;;;;16.40;2.00;;;;;;;;;;4973755;28;20475;-65
2023/10/24 13:10:06;;;;;;;11.43;2.67;;;;;;;;;;4972860;28;20424;-65
2023/10/24 13:12:31;;;;;;;14.13;2.50;;;;;;;;;;4981208;28;20022;-64
2023/10/24 13:14:57;;;;;;;8.50;2.20;;;;;;;;;;4992726;28;20061;-64
2023/10/24 13:17:22;;;;;;;16.13;2.80;;;;;;;;;;4992746;28;20114;-64
2023/10/24 13:19:48;;;;;;;11.15;2.65;;;;;;;;;;4992855;28;20154;-65
2023/10/24 13:22:14;;;;;;;11.75;2.55;;;;;;;;;;4992742;28;20037;-65
2023/10/24 13:24:39;;;;;;;13.93;2.40;;;;;;;;;;4991694;28;20029;-67
2023/10/24 13:27:05;;;;;;;23.38;2.50;;;;;;;;;;4992975;28;20031;-64
2023/10/24 13:29:31;;;;;;;20.55;2.47;;;;;;;;;;4992669;28;20109;-64
2023/10/24 13:31:58;;;;;;;10.85;2.20;;;;;;;;;;4991945;28;20118;-64
2023/10/24 13:34:24;;;;;;;29.77;2.83;;;;;;;;;;4973310;28;20049;-70
2023/10/24 13:36:49;;;;;;;14.80;2.85;;;;;;;;;;4973504;28;20105;-63
2023/10/24 13:39:16;;;;;;;14.55;2.42;;;;;;;;;;4983503;28;20031;-63
2023/10/24 13:41:42;;;;;;;14.60;2.40;;;;;;;;;;4980504;28;20042;-64
2023/10/24 13:44:08;;;;;;;18.55;2.40;;;;;;;;;;4973568;28;20038;-66
2023/10/24 13:46:34;;;;;;;14.90;2.85;;;;;;;;;;4973528;28;20027;-64
2023/10/24 13:49:00;;;;;;;18.13;3.03;;;;;;;;;;4973270;28;20022;-65
2023/10/24 13:51:27;;;;;;;11.02;2.90;;;;;;;;;;4973436;28;20093;-62
2023/10/24 13:53:53;;;;;;;20.85;3.17;;;;;;;;;;4973241;28;20607;-66
2023/10/24 13:56:18;;;;;;;22.98;3.35;;;;;;;;;;4973435;28;20026;-63
2023/10/24 13:58:44;;;;;;;21.65;3.17;;;;;;;;;;4976242;28;20437;-66
2023/10/24 14:01:09;;;;;;;16.08;2.97;;;;;;;;;;4976597;28;20042;-64
2023/10/24 14:03:35;;;;;;;15.32;2.72;;;;;;;;;;4976719;28;20034;-65
2023/10/24 14:06:02;;;;;;;22.00;3.17;;;;;;;;;;4976649;28;20379;-65
2023/10/24 14:08:28;;;;;;;14.43;2.67;;;;;;;;;;4976667;28;20035;-65
2023/10/24 14:10:53;;;;;;;4.50;1.73;;;;;;;;;;4976780;28;20057;-65
2023/10/24 14:13:19;;;;;;;15.30;2.53;;;;;;;;;;4976687;28;20031;-65
2023/10/24 14:15:45;;;;;;;10.05;2.42;;;;;;;;;;4976456;28;20108;-64
2023/10/24 14:18:11;;;;;;;12.60;2.90;;;;;;;;;;4976603;28;20027;-65
2023/10/24 14:20:37;;;;;;;12.05;2.05;;;;;;;;;;4976413;28;20018;-64
2023/10/24 14:23:02;;;;;;;12.95;2.33;;;;;;;;;;4975003;28;20494;-65
2023/10/24 14:25:28;;;;;;;12.60;2.30;;;;;;;;;;4974790;28;20114;-65
2023/10/24 14:27:53;;;;;;;14.70;2.63;;;;;;;;;;4976029;28;20035;-64
2023/10/24 14:30:20;;;;;;;14.20;2.85;;;;;;;;;;4977124;28;20033;-65
2023/10/24 14:32:45;;;;;;;15.70;2.53;;;;;;;;;;4976073;28;20040;-65
2023/10/24 14:35:11;;;;;;;13.90;2.60;;;;;;;;;;4976882;28;20384;-65
2023/10/24 14:37:36;;;;;;;19.30;3.05;;;;;;;;;;4976737;28;20476;-65
2023/10/24 14:40:02;;;;;;;10.82;2.58;;;;;;;;;;4975398;28;20458;-70